Time;durP1;ratioP1;P1;durP2;ratioP2;P2;SDS_P1;SDS_P2;PMS_P1;PMS_P2;Temp;Humidity;BMP_temperature;BMP_pressure;BME280_temperature;BME280_humidity;BME280_pressure;Samples;Min_cycle;Max_cycle;Signal;HPM_P1;HPM_P2
2022/06/16 00:00:48;;;;;;;7.13;3.80;;;;;;;17.50;50.51;100956.81;123626;1099;104220;-78
2022/06/16 00:03:17;;;;;;;10.70;3.77;;;;;;;17.48;50.78;100947.04;123875;1099;104290;-79
2022/06/16 00:05:46;;;;;;;8.67;3.80;;;;;;;17.47;51.19;100954.12;123857;1099;104258;-79
2022/06/16 00:08:18;;;;;;;7.70;3.97;;;;;;;17.47;50.34;100951.47;123706;1099;104258;-79
2022/06/16 00:13:38;;;;;;;11.30;4.30;;;;;;;17.50;50.84;100945.29;123382;1102;104379;-78
2022/06/16 00:16:08;;;;;;;6.87;4.10;;;;;;;17.50;50.60;100950.59;123376;1102;104363;-79
2022/06/16 00:18:38;;;;;;;11.87;3.87;;;;;;;17.49;50.60;100948.83;123465;1102;104275;-79
2022/06/16 00:21:08;;;;;;;10.17;3.87;;;;;;;17.50;50.73;100962.13;123326;1102;104421;-79
2022/06/16 00:23:37;;;;;;;11.67;3.80;;;;;;;17.51;50.84;100958.58;123281;1102;104402;-79
2022/06/16 00:26:10;;;;;;;10.87;4.60;;;;;;;17.49;51.24;100955.02;123296;1100;104405;-78
2022/06/16 00:28:40;;;;;;;9.13;3.85;;;;;;;17.43;50.88;100950.50;123545;1102;104412;-79
2022/06/16 00:31:10;;;;;;;10.37;4.00;;;;;;;17.38;51.02;100952.20;123562;1100;104431;-79
2022/06/16 00:33:41;;;;;;;9.27;4.23;;;;;;;17.35;51.24;100943.33;123630;1102;105729;-79
2022/06/16 00:36:10;;;;;;;9.33;3.73;;;;;;;17.33;51.47;100945.07;123504;1102;104422;-78
2022/06/16 00:38:40;;;;;;;10.85;4.15;;;;;;;17.30;51.31;100945.02;123560;1102;104472;-79
2022/06/16 00:41:10;;;;;;;10.83;4.07;;;;;;;17.30;51.78;100942.37;123316;1102;104483;-79
2022/06/16 00:43:39;;;;;;;9.70;3.83;;;;;;;17.31;51.76;100942.39;123434;1102;104380;-78
2022/06/16 00:46:12;;;;;;;10.07;4.13;;;;;;;17.33;51.52;100943.30;124082;1098;104367;-78
2022/06/16 00:48:46;;;;;;;12.00;4.15;;;;;;;17.33;51.36;100942.42;123692;1099;104220;-78
2022/06/16 00:51:20;;;;;;;7.73;3.80;;;;;;;17.33;51.65;100947.73;124305;1099;104293;-79
2022/06/16 00:53:50;;;;;;;12.43;4.00;;;;;;;17.31;52.11;100949.44;123779;1099;104217;-78
2022/06/16 00:56:21;;;;;;;8.13;3.63;;;;;;;17.31;52.26;100950.35;123723;1099;104291;-79
2022/06/16 00:58:58;;;;;;;8.30;3.70;;;;;;;17.32;52.26;100957.42;123617;1099;104373;-79
2022/06/16 01:01:27;;;;;;;10.53;4.10;;;;;;;17.35;52.04;100952.16;123691;1099;104236;-79
2022/06/16 01:06:46;;;;;;;8.50;3.97;;;;;;;17.40;52.04;100952.23;123548;1099;104360;-79
2022/06/16 01:09:18;;;;;;;10.47;4.03;;;;;;;17.43;51.52;100950.50;123561;1099;104216;-79
2022/06/16 01:15:05;;;;;;;11.73;4.00;;;;;;;17.51;51.73;100937.35;123935;1099;104403;-79
2022/06/16 01:17:41;;;;;;;9.43;3.77;;;;;;;17.52;52.18;100941.80;123678;1098;104357;-79
2022/06/16 01:20:28;;;;;;;6.90;3.60;;;;;;;17.51;52.52;100945.31;123838;1099;104267;-79
2022/06/16 01:23:29;;;;;;;9.10;3.87;;;;;;;17.46;52.34;100938.18;123706;1099;104238;-79
2022/06/16 01:26:15;;;;;;;9.30;3.60;;;;;;;17.42;52.20;100947.83;123813;1099;104721;-78
2022/06/16 01:29:01;;;;;;;9.67;3.93;;;;;;;17.39;52.35;100947.78;123519;1099;104617;-78
2022/06/16 01:31:37;;;;;;;14.30;4.60;;;;;;;17.35;53.16;100945.98;123793;1099;104373;-79
2022/06/16 01:34:12;;;;;;;8.03;3.80;;;;;;;17.30;53.05;100947.67;123840;1099;104370;-79
2022/06/16 01:36:51;;;;;;;11.27;4.27;;;;;;;17.26;52.90;100944.06;123855;1099;104318;-78
2022/06/16 01:39:29;;;;;;;9.67;4.30;;;;;;;17.25;52.90;100945.84;123555;1099;104815;-78
2022/06/16 01:42:03;;;;;;;7.57;3.47;;;;;;;17.27;53.25;100945.86;123799;1099;104398;-78
2022/06/16 01:44:39;;;;;;;7.72;3.58;;;;;;;17.27;53.03;100942.33;123637;1099;104361;-79
2022/06/16 01:47:13;;;;;;;8.15;3.65;;;;;;;17.29;53.16;100936.16;123608;1099;104296;-79
2022/06/16 01:49:49;;;;;;;9.20;3.97;;;;;;;17.38;52.74;100930.11;123615;1099;104232;-79
2022/06/16 01:52:25;;;;;;;9.33;3.70;;;;;;;17.46;53.21;100928.45;123619;1099;104245;-79
2022/06/16 01:55:00;;;;;;;9.13;3.60;;;;;;;17.51;52.97;100926.74;123836;1099;104322;-78
2022/06/16 01:57:34;;;;;;;8.83;3.70;;;;;;;17.53;53.21;100930.33;123824;1099;104284;-78
2022/06/16 02:00:09;;;;;;;7.93;3.60;;;;;;;17.58;52.83;100931.27;123883;1099;104358;-79
2022/06/16 02:02:52;;;;;;;11.20;3.87;;;;;;;17.59;53.16;100927.77;123675;1099;104354;-79
2022/06/16 02:05:26;;;;;;;8.63;3.70;;;;;;;17.58;53.48;100928.63;123508;1099;104245;-78
2022/06/16 02:07:58;;;;;;;;;;;;;;;17.54;53.59;100925.91;123573;1098;104235;-79
2022/06/16 02:10:31;;;;;;;7.00;3.40;;;;;;;17.57;53.38;100925.95;123653;1099;104287;-79
2022/06/16 02:13:05;;;;;;;7.53;3.73;;;;;;;17.59;53.47;100919.80;123373;1099;104377;-79
2022/06/16 02:15:53;;;;;;;12.10;4.00;;;;;;;17.67;53.39;100913.69;123436;1099;104431;-79
2022/06/16 02:18:28;;;;;;;7.70;3.70;;;;;;;17.72;53.63;100919.97;123585;1099;104294;-79
2022/06/16 02:21:02;;;;;;;8.20;3.70;;;;;;;17.75;53.06;100920.01;123280;1099;104849;-79
2022/06/16 02:23:31;;;;;;;8.13;3.50;;;;;;;17.79;53.54;100912.11;123583;1099;104293;-79
2022/06/16 02:26:00;;;;;;;9.43;3.70;;;;;;;17.83;53.43;100917.45;123561;1102;104405;-79
2022/06/16 02:28:29;;;;;;;6.25;3.50;;;;;;;17.84;53.43;100919.22;123609;1102;104249;-79
2022/06/16 02:31:22;;;;;;;8.23;3.53;;;;;;;17.87;53.66;100916.59;123395;1100;104421;-79
2022/06/16 02:34:04;;;;;;;7.63;3.50;;;;;;;17.88;53.31;100921.05;123296;1102;104571;-79
2022/06/16 02:36:49;;;;;;;10.07;3.63;;;;;;;17.92;53.28;100923.80;123677;1102;104424;-79
2022/06/16 02:39:31;;;;;;;11.40;4.10;;;;;;;17.96;53.27;100925.59;123532;1102;104485;-80
2022/06/16 02:42:13;;;;;;;8.70;3.80;;;;;;;17.99;53.20;100923.87;123556;1102;104435;-79
2022/06/16 02:44:54;;;;;;;7.85;3.50;;;;;;;18.02;53.21;100934.53;123564;1102;104422;-79
2022/06/16 02:47:46;;;;;;;6.70;3.50;;;;;;;18.04;53.35;100928.34;123609;1099;104718;-79
2022/06/16 02:50:24;;;;;;;12.63;4.60;;;;;;;18.08;53.54;100927.52;123632;1102;104351;-79
2022/06/16 02:53:04;;;;;;;8.93;3.50;;;;;;;18.12;53.28;100929.34;123553;1102;104418;-79
2022/06/16 02:55:39;;;;;;;10.43;3.90;;;;;;;18.09;53.30;100937.27;123610;1099;104380;-79
2022/06/16 02:58:10;;;;;;;10.43;3.97;;;;;;;18.04;53.57;100933.66;123816;1102;104431;-79
2022/06/16 03:00:45;;;;;;;8.60;3.50;;;;;;;17.98;53.76;100933.58;124169;1098;104345;-79
2022/06/16 03:03:20;;;;;;;8.70;3.37;;;;;;;17.91;54.05;100934.39;124437;1098;104249;-79
2022/06/16 03:05:56;;;;;;;10.53;3.70;;;;;;;17.88;53.41;100924.62;124389;1099;104248;-79
2022/06/16 03:08:25;;;;;;;;;;;;;;;17.87;53.66;100928.13;124079;1099;104370;-79
2022/06/16 03:10:58;;;;;;;10.33;3.50;;;;;;;17.84;53.88;100929.83;123943;1099;104267;-79
2022/06/16 03:13:30;;;;;;;13.10;4.27;;;;;;;17.82;54.01;100937.77;123842;1099;104939;-79
2022/06/16 03:16:00;;;;;;;8.97;4.00;;;;;;;17.81;53.54;100920.09;123952;1099;104820;-79
2022/06/16 03:18:31;;;;;;;7.65;3.45;;;;;;;17.87;53.96;100927.22;123790;1099;104242;-79
2022/06/16 03:21:02;;;;;;;8.07;3.50;;;;;;;17.88;53.83;100937.89;123727;1099;104246;-79
2022/06/16 03:23:31;;;;;;;11.47;3.60;;;;;;;17.88;54.08;100931.66;123701;1099;104291;-80
2022/06/16 03:26:01;;;;;;;10.65;3.65;;;;;;;17.85;54.31;100936.94;123610;1099;104393;-80
2022/06/16 03:28:31;;;;;;;10.40;3.60;;;;;;;17.81;54.35;100930.70;123642;1102;104355;-79
2022/06/16 03:31:00;;;;;;;6.53;3.70;;;;;;;17.81;54.50;100941.33;124032;1099;104306;-79
2022/06/16 03:33:29;;;;;;;8.30;3.60;;;;;;;17.83;54.66;100936.91;124001;1099;104290;-79
2022/06/16 03:35:59;;;;;;;7.93;3.43;;;;;;;17.83;54.81;100944.88;123638;1099;104305;-79
2022/06/16 03:38:33;;;;;;;7.90;3.53;;;;;;;17.81;54.96;100957.25;123873;1099;104348;-79
2022/06/16 03:41:02;;;;;;;6.73;3.63;;;;;;;17.78;55.25;100958.09;123632;1099;104300;-79
2022/06/16 03:43:30;;;;;;;12.43;4.30;;;;;;;17.77;55.87;100945.67;123968;1099;104238;-78
2022/06/16 03:46:11;;;;;;;12.70;3.90;;;;;;;17.73;55.96;100950.92;123534;1099;104405;-78
2022/06/16 03:48:41;;;;;;;14.65;4.60;;;;;;;17.71;56.09;100955.33;123524;1099;104316;-78
2022/06/16 03:51:11;;;;;;;9.27;3.90;;;;;;;17.73;57.20;100954.48;123580;1099;104322;-78
2022/06/16 03:53:42;;;;;;;12.10;3.65;;;;;;;17.69;57.09;100947.34;123654;1099;104319;-79
2022/06/16 03:56:13;;;;;;;16.27;4.33;;;;;;;17.70;57.26;100954.45;123638;1099;104284;-78
2022/06/16 03:58:42;;;;;;;11.30;4.23;;;;;;;17.71;57.62;100955.33;124185;1102;104159;-79
2022/06/16 04:01:12;;;;;;;11.50;4.53;;;;;;;17.74;56.75;100958.91;124121;1102;104277;-80
2022/06/16 04:06:30;;;;;;;16.57;4.77;;;;;;;17.90;57.41;100946.78;123898;1099;104273;-81
2022/06/16 04:08:59;;;;;;;10.63;4.80;;;;;;;18.00;56.74;100942.47;123924;1102;104431;-79
2022/06/16 04:11:29;;;;;;;51.37;7.83;;;;;;;18.08;57.24;100948.76;123717;1102;104440;-78
2022/06/16 04:14:02;;;;;;;38.90;6.43;;;;;;;18.13;57.46;100955.01;123657;1102;104566;-80
2022/06/16 04:16:33;;;;;;;31.83;5.73;;;;;;;18.17;57.52;100955.95;123473;1102;104588;-80
2022/06/16 04:19:03;;;;;;;11.60;4.00;;;;;;;18.18;57.42;100951.53;123831;1102;104421;-80
2022/06/16 04:21:38;;;;;;;14.63;4.33;;;;;;;18.18;57.21;100947.09;123906;1100;104284;-81
2022/06/16 04:24:24;;;;;;;13.80;4.60;;;;;;;18.22;57.16;100950.70;124140;1102;104450;-81
2022/06/16 04:26:54;;;;;;;14.85;4.55;;;;;;;18.23;57.31;100942.75;124077;1102;104660;-80
2022/06/16 04:29:24;;;;;;;8.85;4.20;;;;;;;18.32;57.16;100942.85;123955;1102;104361;-80
2022/06/16 04:31:54;;;;;;;10.87;4.37;;;;;;;18.42;57.27;100945.61;124337;1099;104335;-80
2022/06/16 04:34:30;;;;;;;13.27;4.37;;;;;;;18.49;57.01;100947.44;124194;1099;104306;-80
2022/06/16 04:37:00;;;;;;;12.70;4.33;;;;;;;18.54;57.46;100934.20;124164;1099;104296;-79
2022/06/16 04:39:32;;;;;;;11.93;4.63;;;;;;;18.59;57.13;100946.66;124344;1097;104263;-80
2022/06/16 04:42:01;;;;;;;13.53;4.30;;;;;;;18.65;56.95;100949.39;124457;1099;104229;-80
2022/06/16 04:44:33;;;;;;;12.83;4.57;;;;;;;18.68;56.94;100946.76;124384;1099;104242;-80
2022/06/16 04:47:07;;;;;;;11.87;4.10;;;;;;;18.73;57.10;100941.48;124891;1099;104184;-80
2022/06/16 04:49:38;;;;;;;12.80;4.10;;;;;;;18.82;57.15;100938.00;124309;1100;104277;-80
2022/06/16 04:52:11;;;;;;;9.07;4.10;;;;;;;18.98;56.87;100936.38;124848;1099;104274;-79
2022/06/16 04:54:43;;;;;;;10.70;4.40;;;;;;;19.11;56.42;100940.06;124633;1102;104405;-80
2022/06/16 04:57:34;;;;;;;11.90;4.30;;;;;;;19.21;56.50;100933.91;124495;1102;102310;-80
2022/06/16 05:00:20;;;;;;;8.37;3.87;;;;;;;19.26;56.01;100937.52;124527;1102;104242;-80
2022/06/16 05:03:02;;;;;;;8.08;3.75;;;;;;;19.26;56.02;100931.28;124612;1102;104389;-80
2022/06/16 05:05:44;;;;;;;7.20;3.53;;;;;;;19.33;55.78;100927.79;124762;1102;104150;-80
2022/06/16 05:08:36;;;;;;;12.80;3.60;;;;;;;19.39;55.35;100935.81;124218;1102;104230;-80
2022/06/16 05:11:31;;;;;;;12.10;3.70;;;;;;;19.43;54.65;100931.39;124612;1102;102675;-80
2022/06/16 05:14:20;;;;;;;7.30;3.63;;;;;;;19.48;54.69;100934.99;124663;1102;104421;-80
2022/06/16 05:17:00;;;;;;;8.80;3.60;;;;;;;19.53;54.92;100927.91;124892;1102;104405;-81
2022/06/16 05:19:53;;;;;;;12.27;4.00;;;;;;;19.64;54.83;100928.86;124854;1102;118710;-80
2022/06/16 05:22:52;;;;;;;13.57;3.87;;;;;;;19.81;54.33;100926.31;125041;1102;102211;-81
2022/06/16 05:25:58;;;;;;;12.87;3.80;;;;;;;20.04;53.46;100928.16;125152;1105;104306;-80
2022/06/16 05:28:43;;;;;;;10.43;3.63;;;;;;;20.20;53.49;100923.80;124677;1102;104264;-81
2022/06/16 05:31:36;;;;;;;8.97;3.70;;;;;;;20.25;53.45;100936.22;124625;1103;104329;-79
2022/06/16 05:34:27;;;;;;;11.80;3.70;;;;;;;20.30;52.70;100925.58;124982;1102;104229;-79
2022/06/16 05:37:22;;;;;;;7.43;3.60;;;;;;;20.37;52.36;100926.51;124335;1102;104252;-76
2022/06/16 05:40:15;;;;;;;9.30;3.60;;;;;;;20.50;53.08;100927.41;124593;1102;103792;-77
2022/06/16 05:43:06;;;;;;;7.85;3.35;;;;;;;20.58;52.58;100925.64;124746;1102;104175;-77
2022/06/16 05:45:55;;;;;;;11.95;3.90;;;;;;;20.63;52.28;100924.77;124411;1102;103802;-77
2022/06/16 05:48:36;;;;;;;9.07;3.30;;;;;;;20.67;52.40;100930.14;124161;1101;104485;-77
2022/06/16 05:51:25;;;;;;;;;;;;;;;;;;;;;
2022/06/16 05:54:20;;;;;;;12.50;3.60;;;;;;;20.69;51.68;100931.02;125142;1102;104236;-77
2022/06/16 05:56:54;;;;;;;18.00;4.33;;;;;;;20.70;51.81;100935.47;124808;1102;104217;-79
2022/06/16 05:59:28;;;;;;;12.80;4.40;;;;;;;20.65;51.41;100939.02;125479;1099;101800;-80
2022/06/16 06:02:28;;;;;;;13.43;3.57;;;;;;;20.63;50.88;100940.77;125983;1099;104241;-80
2022/06/16 06:05:04;;;;;;;14.43;3.83;;;;;;;20.64;51.34;100944.30;125648;1099;102415;-79
2022/06/16 06:16:29;;;;;;;8.90;3.40;;;;;;;20.64;49.36;100953.22;125288;1102;104255;-79
2022/06/16 06:19:26;;;;;;;11.67;3.93;;;;;;;20.69;49.53;100949.68;124290;1102;104428;-81
2022/06/16 06:22:06;;;;;;;6.73;3.30;;;;;;;20.72;49.06;100947.89;124309;1102;103582;-78
2022/06/16 06:24:58;;;;;;;12.20;3.50;;;;;;;20.80;49.64;100948.81;125949;1102;102188;-79
2022/06/16 06:27:42;;;;;;;14.53;3.65;;;;;;;20.81;49.77;100939.91;124609;1102;104348;-79
2022/06/16 06:30:29;;;;;;;5.67;3.00;;;;;;;20.96;48.71;100955.04;124332;1102;104242;-78
2022/06/16 06:33:11;;;;;;;4.77;2.77;;;;;;;21.02;48.18;100951.50;125511;1102;103716;-79
2022/06/16 06:35:46;;;;;;;13.93;3.37;;;;;;;21.09;48.93;100950.58;124974;1105;104287;-78
2022/06/16 06:38:22;;;;;;;3.50;2.30;;;;;;;21.18;48.23;100955.03;124363;1102;104345;-80
2022/06/16 06:41:34;;;;;;;4.03;2.73;;;;;;;21.24;47.75;100948.78;125495;1102;104239;-79
2022/06/16 06:44:15;;;;;;;7.63;2.80;;;;;;;21.36;48.45;100939.00;125186;1106;102859;-78
2022/06/16 06:46:51;;;;;;;9.40;3.03;;;;;;;21.47;48.62;100940.74;124228;1102;104232;-79
2022/06/16 06:49:23;;;;;;;9.57;3.40;;;;;;;21.62;48.18;100945.20;125044;1102;104348;-81
2022/06/16 06:51:56;;;;;;;11.23;3.47;;;;;;;21.71;48.47;100950.52;125089;1102;111933;-79
2022/06/16 06:54:31;;;;;;;8.73;3.60;;;;;;;21.78;48.27;100952.25;125226;1102;104099;-79
2022/06/16 06:57:02;;;;;;;11.23;3.90;;;;;;;21.83;48.22;100953.16;126043;1102;102438;-79
2022/06/16 06:59:33;;;;;;;8.87;3.50;;;;;;;21.93;47.55;100940.64;124541;1102;104518;-79
2022/06/16 07:02:07;;;;;;;7.70;3.40;;;;;;;22.02;47.62;100948.62;124512;1102;102195;-79
2022/06/16 07:04:42;;;;;;;7.87;3.60;;;;;;;22.14;47.30;100939.63;126153;1102;102335;-80
2022/06/16 07:07:30;;;;;;;8.60;3.40;;;;;;;22.25;48.01;100943.16;125588;1102;104198;-76
2022/06/16 07:10:08;;;;;;;10.40;3.40;;;;;;;22.37;47.18;100942.22;125211;1102;104319;-78
2022/06/16 07:12:44;;;;;;;8.13;3.10;;;;;;;22.47;47.73;100932.37;125737;1102;102523;-80
2022/06/16 07:15:24;;;;;;;12.83;3.70;;;;;;;22.56;46.50;100934.98;124981;1102;104431;-79
2022/06/16 07:18:07;;;;;;;;;;;;;;;;;;;;;
2022/06/16 07:21:06;;;;;;;8.50;3.33;;;;;;;22.79;45.87;100944.61;126097;1099;102244;-80
2022/06/16 07:23:47;;;;;;;7.27;3.17;;;;;;;22.93;46.17;100941.83;125447;1099;104265;-79
2022/06/16 07:26:35;;;;;;;6.63;3.00;;;;;;;22.96;45.13;100940.01;125635;1102;103429;-78
2022/06/16 07:29:10;;;;;;;10.13;3.70;;;;;;;22.92;45.37;100940.05;125418;1102;102406;-78
2022/06/16 07:31:52;;;;;;;8.80;3.00;;;;;;;22.89;44.44;100938.30;125280;1102;104307;-79
2022/06/16 07:34:45;;;;;;;4.30;2.70;;;;;;;23.01;44.64;100933.73;125423;1103;103584;-78
2022/06/16 07:37:42;;;;;;;10.17;3.33;;;;;;;23.21;44.85;100936.27;124215;1102;104373;-79
2022/06/16 07:40:37;;;;;;;8.27;3.50;;;;;;;23.46;43.86;100939.58;125214;1102;103151;-79
2022/06/16 07:43:41;;;;;;;6.67;2.97;;;;;;;23.74;42.27;100939.28;125267;1102;103163;-79
2022/06/16 07:46:23;;;;;;;24.73;3.70;;;;;;;23.94;42.50;100931.03;125440;1102;104300;-80
2022/06/16 07:49:09;;;;;;;5.53;2.37;;;;;;;24.09;42.31;100928.16;126190;1102;101908;-80
2022/06/16 07:52:04;;;;;;;5.50;2.70;;;;;;;24.16;41.15;100929.83;126064;1102;102807;-80
2022/06/16 07:54:52;;;;;;;9.13;2.60;;;;;;;24.16;41.34;100932.50;125209;1102;104470;-81
2022/06/16 07:57:57;;;;;;;9.40;2.97;;;;;;;24.28;40.61;100941.28;125383;1099;104182;-81
2022/06/16 08:00:38;;;;;;;6.00;2.80;;;;;;;24.57;39.65;100938.20;125368;1102;103836;-80
2022/06/16 08:03:32;;;;;;;7.20;2.40;;;;;;;24.80;39.10;100935.16;125272;1099;105454;-81
2022/06/16 08:06:26;;;;;;;;;;;;;;;;;;;;;
2022/06/16 08:09:15;;;;;;;5.67;2.60;;;;;;;25.06;38.19;100934.73;125398;1099;104319;-81
2022/06/16 08:12:08;;;;;;;11.10;2.47;;;;;;;25.27;37.43;100924.51;125190;1102;104281;-81
2022/06/16 08:15:10;;;;;;;12.20;2.90;;;;;;;25.58;36.71;100932.90;125353;1103;104352;-81
2022/06/16 08:17:57;;;;;;;5.50;3.00;;;;;;;25.70;36.65;100931.78;125178;1102;104367;-80
2022/06/16 08:20:50;;;;;;;;;;;;;;;;;;;;;
2022/06/16 08:23:35;;;;;;;16.80;3.63;;;;;;;25.96;36.41;100927.65;125922;1099;104153;-80
2022/06/16 08:26:43;;;;;;;7.57;3.40;;;;;;;26.25;35.85;100928.86;125381;1102;103217;-80
2022/06/16 08:29:41;;;;;;;8.10;2.80;;;;;;;26.48;35.74;100921.14;125376;1102;104459;-80
2022/06/16 08:32:39;;;;;;;6.42;2.50;;;;;;;26.55;34.63;100932.63;125357;1102;102715;-81
2022/06/16 08:35:12;;;;;;;5.60;2.37;;;;;;;26.54;34.22;100925.50;125381;1102;104683;-80
2022/06/16 08:37:58;;;;;;;6.73;2.70;;;;;;;26.67;33.80;100934.19;125293;1102;104403;-80
2022/06/16 08:40:50;;;;;;;6.60;2.30;;;;;;;26.70;34.23;100926.91;125097;1105;102295;-81
2022/06/16 08:43:29;;;;;;;5.90;2.30;;;;;;;26.81;34.13;100923.95;125130;1102;102325;-79
2022/06/16 08:46:01;;;;;;;4.70;2.57;;;;;;;27.03;33.44;100920.72;125219;1105;103269;-80
2022/06/16 08:48:47;;;;;;;6.17;2.60;;;;;;;27.10;33.63;100922.34;125157;1102;104322;-81
2022/06/16 08:51:40;;;;;;;6.60;2.70;;;;;;;27.15;33.43;100924.91;125082;1102;102457;-80
2022/06/16 08:54:33;;;;;;;9.03;2.73;;;;;;;27.21;33.43;100913.98;125097;1102;104406;-81
2022/06/16 08:57:16;;;;;;;7.47;2.67;;;;;;;27.24;33.31;100917.46;125890;1102;102109;-80
2022/06/16 08:59:55;;;;;;;3.63;2.63;;;;;;;27.28;33.15;100920.08;125973;1102;103082;-80
2022/06/16 09:02:43;;;;;;;3.20;2.30;;;;;;;27.33;32.88;100910.08;125592;1102;103149;-80
2022/06/16 09:05:32;;;;;;;7.60;2.53;;;;;;;27.41;32.39;100908.95;125414;1102;107888;-79
2022/06/16 09:08:21;;;;;;;6.17;2.67;;;;;;;27.56;32.28;100902.23;125480;1102;102584;-80
2022/06/16 09:11:13;;;;;;;4.87;2.37;;;;;;;27.71;32.63;100902.73;125396;1102;103573;-79
2022/06/16 09:14:12;;;;;;;7.27;2.40;;;;;;;27.77;32.07;100905.25;125742;1099;103027;-78
2022/06/16 09:17:23;;;;;;;7.20;2.60;;;;;;;27.79;31.74;100906.08;125526;1100;104300;-81
2022/06/16 09:20:28;;;;;;;9.10;2.60;;;;;;;27.74;31.29;100906.22;125916;1099;102879;-81
2022/06/16 09:23:18;;;;;;;5.80;2.60;;;;;;;27.80;31.70;100902.47;126070;1098;104073;-79
2022/06/16 09:26:22;;;;;;;4.33;2.73;;;;;;;27.94;31.20;100902.93;126035;1099;111576;-79
2022/06/16 09:28:59;;;;;;;10.60;3.00;;;;;;;28.20;31.49;100892.30;125649;1099;104258;-80
2022/06/16 09:31:38;;;;;;;8.47;2.90;;;;;;;28.19;31.14;100896.82;125624;1099;104163;-79
2022/06/16 09:34:13;;;;;;;8.17;2.67;;;;;;;28.08;30.80;100899.84;125419;1102;104334;-80
2022/06/16 09:36:56;;;;;;;4.23;2.23;;;;;;;27.94;30.96;100897.53;125982;1099;102627;-81
2022/06/16 09:39:53;;;;;;;7.63;2.70;;;;;;;27.84;30.03;100896.03;125708;1099;103153;-81
2022/06/16 09:43:07;;;;;;;7.17;2.70;;;;;;;27.77;30.24;100889.08;126044;1099;102617;-79
2022/06/16 09:46:23;;;;;;;9.43;2.83;;;;;;;27.73;30.27;100887.39;125886;1098;103785;-79
2022/06/16 09:49:15;;;;;;;12.10;2.83;;;;;;;27.68;30.02;100884.83;126801;1098;102130;-80
2022/06/16 09:51:54;;;;;;;4.77;2.53;;;;;;;27.36;30.11;100889.34;126189;1099;102217;-81
2022/06/16 09:54:55;;;;;;;9.10;2.60;;;;;;;27.08;30.02;100883.77;126808;1099;102355;-79
2022/06/16 09:57:51;;;;;;;6.93;2.77;;;;;;;26.87;30.77;100880.73;126753;1099;102443;-80
2022/06/16 10:00:34;;;;;;;5.63;2.50;;;;;;;26.73;30.75;100882.90;126187;1099;102897;-80
2022/06/16 10:03:26;;;;;;;8.67;2.77;;;;;;;26.57;30.57;100878.77;126815;1098;102085;-82
2022/06/16 10:06:12;;;;;;;8.37;3.73;;;;;;;26.42;30.44;100885.43;126327;1099;102214;-80
2022/06/16 10:08:55;;;;;;;5.67;2.50;;;;;;;26.39;30.67;100878.30;126988;1098;112023;-80
2022/06/16 10:11:40;;;;;;;8.20;3.23;;;;;;;26.47;30.43;100876.30;125406;1099;102808;-78
2022/06/16 10:14:22;;;;;;;5.13;2.60;;;;;;;26.44;30.29;100879.07;125948;1099;104235;-77
2022/06/16 10:16:59;;;;;;;5.53;2.80;;;;;;;26.34;30.29;100870.34;125878;1099;104169;-78
2022/06/16 10:19:33;;;;;;;6.43;2.77;;;;;;;26.40;30.71;100866.64;125926;1099;104248;-77
2022/06/16 10:22:07;;;;;;;4.93;2.63;;;;;;;26.53;30.62;100872.59;126018;1098;104245;-77
2022/06/16 10:24:41;;;;;;;6.53;2.60;;;;;;;26.54;30.84;100867.17;125798;1099;104172;-77
2022/06/16 10:27:14;;;;;;;6.00;2.90;;;;;;;26.63;30.57;100871.45;125430;1099;104171;-81
2022/06/16 10:29:54;;;;;;;4.75;2.67;;;;;;;26.61;30.69;100869.71;125911;1098;104220;-80
2022/06/16 10:32:41;;;;;;;3.17;2.57;;;;;;;26.67;30.64;100867.78;125873;1099;102276;-79
2022/06/16 10:35:30;;;;;;;7.50;2.80;;;;;;;26.76;30.33;100863.98;125531;1099;104161;-80
2022/06/16 10:38:03;;;;;;;3.97;2.50;;;;;;;26.94;30.28;100870.67;125950;1099;104201;-81
2022/06/16 10:41:04;;;;;;;;;;;;;;;;;;;;;
2022/06/16 10:46:30;;;;;;;5.37;2.67;;;;;;;27.18;30.18;100852.98;125298;1102;104169;-80
2022/06/16 10:49:07;;;;;;;4.83;2.73;;;;;;;27.43;30.19;100846.94;125087;1102;104242;-78
2022/06/16 10:52:02;;;;;;;8.93;2.60;;;;;;;27.46;29.42;100854.02;124927;1103;104201;-81
2022/06/16 10:54:37;;;;;;;4.40;2.93;;;;;;;27.25;29.83;100851.89;125135;1105;102326;-80
2022/06/16 10:57:26;;;;;;;4.53;2.50;;;;;;;27.30;29.78;100850.86;124206;1102;104702;-83
2022/06/16 11:00:11;;;;;;;3.53;2.60;;;;;;;27.48;29.73;100853.06;125170;1103;102454;-81
2022/06/16 11:03:10;;;;;;;11.87;2.93;;;;;;;27.58;29.45;100848.28;125318;1102;104153;-81
2022/06/16 11:06:01;;;;;;;3.60;2.70;;;;;;;27.32;29.44;100846.37;125515;1101;102057;-81
2022/06/16 11:09:32;;;;;;;10.57;2.70;;;;;;;27.27;30.18;100841.08;125194;1105;103151;-80
2022/06/16 11:12:40;;;;;;;8.47;3.03;;;;;;;27.38;29.56;100843.50;125040;1102;104380;-81
2022/06/16 11:15:35;;;;;;;10.70;3.00;;;;;;;27.53;29.64;100837.63;124882;1103;104265;-82
2022/06/16 11:18:26;;;;;;;9.47;2.60;;;;;;;27.57;29.47;100842.02;125061;1102;108632;-83
2022/06/16 11:21:21;;;;;;;6.37;2.70;;;;;;;27.63;29.96;100835.57;125186;1103;103215;-82
2022/06/16 11:24:19;;;;;;;6.07;2.93;;;;;;;27.77;29.44;100830.64;125027;1102;104265;-80
2022/06/16 11:27:06;;;;;;;4.03;2.77;;;;;;;27.90;29.65;100828.44;124832;1102;104248;-80
2022/06/16 11:29:57;;;;;;;6.15;2.60;;;;;;;28.03;29.00;100830.78;125523;1105;102780;-79
2022/06/16 11:32:52;;;;;;;3.83;2.63;;;;;;;28.24;29.08;100840.02;125259;1105;103960;-81
2022/06/16 11:35:34;;;;;;;4.57;2.57;;;;;;;28.35;29.36;100828.88;125162;1102;103889;-79
2022/06/16 11:38:26;;;;;;;4.93;2.80;;;;;;;28.36;28.82;100828.83;124954;1105;103540;-83
2022/06/16 11:41:07;;;;;;;5.17;3.00;;;;;;;28.05;29.17;100829.81;124943;1105;104264;-79
2022/06/16 11:44:27;;;;;;;7.23;2.70;;;;;;;27.84;28.92;100820.54;125202;1106;102902;-80
2022/06/16 11:53:43;;;;;;;7.40;2.47;;;;;;;27.80;29.34;100816.19;125296;1102;104179;-81
2022/06/16 11:56:49;;;;;;;4.27;2.50;;;;;;;27.72;28.88;100810.13;125231;1102;103655;-80
2022/06/16 11:59:49;;;;;;;6.37;3.13;;;;;;;27.98;29.43;100807.53;125145;1102;102790;-80
2022/06/16 12:09:16;;;;;;;10.20;3.33;;;;;;;28.58;29.09;100801.08;124566;1102;104256;-80
2022/06/16 12:12:04;;;;;;;9.07;2.67;;;;;;;28.64;28.83;100807.20;125260;1102;103675;-79
2022/06/16 12:14:51;;;;;;;5.30;2.70;;;;;;;28.55;28.96;100801.19;125257;1106;102588;-82
2022/06/16 12:17:52;;;;;;;5.63;2.33;;;;;;;28.31;28.52;100795.69;126033;1102;103548;-82
2022/06/16 12:21:22;;;;;;;6.55;2.62;;;;;;;28.23;28.65;100798.64;125806;1102;107944;-80
2022/06/16 12:24:14;;;;;;;5.20;2.53;;;;;;;28.25;28.73;100793.20;125698;1105;102235;-83
2022/06/16 12:27:27;;;;;;;12.70;2.70;;;;;;;28.27;28.36;100800.31;125707;1104;102016;-79
2022/06/16 12:30:13;;;;;;;4.80;3.00;;;;;;;28.32;28.77;100789.37;125304;1106;102093;-80
2022/06/16 12:33:06;;;;;;;3.87;2.33;;;;;;;28.37;28.64;100786.52;125024;1106;104176;-79
2022/06/16 12:36:01;;;;;;;5.53;2.57;;;;;;;28.31;28.71;100788.50;125048;1105;102964;-81
2022/06/16 12:38:40;;;;;;;5.67;2.50;;;;;;;28.16;28.27;100778.22;125229;1106;104255;-80
2022/06/16 12:41:20;;;;;;;8.93;2.80;;;;;;;28.00;28.43;100782.34;125197;1105;104137;-82
2022/06/16 12:44:03;;;;;;;5.03;2.70;;;;;;;27.72;28.20;100772.39;125442;1105;102231;-81
2022/06/16 12:46:55;;;;;;;3.90;2.50;;;;;;;27.63;28.79;100776.27;125262;1102;102617;-82
2022/06/16 12:49:44;;;;;;;5.47;2.80;;;;;;;27.58;28.82;100775.51;125142;1105;104354;-81
2022/06/16 12:52:32;;;;;;;9.73;3.00;;;;;;;27.50;28.61;100761.39;125345;1105;103485;-81
2022/06/16 12:55:22;;;;;;;8.13;2.97;;;;;;;27.58;28.17;100764.73;125170;1105;102129;-80
2022/06/16 12:58:00;;;;;;;4.07;2.43;;;;;;;27.64;28.48;100766.36;125975;1105;103041;-80
2022/06/16 13:00:44;;;;;;;9.97;3.23;;;;;;;27.61;28.66;100762.84;125979;1104;102142;-79